Airfield :
LOGIN :

Register | Disclaimer

   EN    FR    IT 

 










Legend :    VFR   Marginal VFR   IFR   Intensive IFR   Very Intensive IFR
Visi :
Ceiling :
>= 8 km
>= 3000ft
5 to 8 km
1000 to 3000 ft
1500m to 5 km
500 to 1000 ft
800 to 1500m
200 to 500 ft
< 800m
< 200 ft
Symbols :   Thunderstorms  Fog  Heavy snow  Heavy precipitations  Wind > 20 kt
SIGMETs :     Misc.  Thunderstorms  Icing  Turbulence  Mountain Waves  Volcanic Ashes







- Airport Elevation : 1 ft
- Download approach charts


EGCK - Caernarfon

CURRENT METAR :
  • 142020Z AUTO 30020KT 9999 BKN021/// 07/04 Q0989

EXPIRED METARs :
  • 141950Z AUTO 30021KT 9999 BKN024/// BKN041/// 07/04 Q0988
  • 141920Z AUTO 31017KT 9999 SCT025/// 07/03 Q0988
  • 141850Z AUTO 32014KT 9999 BKN027/// 07/02 Q0988
  • 141820Z AUTO 33007KT 310V010 9999 SCT026/// 05/02 Q0988
  • 141750Z AUTO 33008KT 9999 BKN024/// BKN039/// 06/03 Q0987

TAF AMD TAF EGCK
Valid from the 14 at 18:00 until the 15 at 03:00 UTC


141832Z 1418/1503 28010KT 9999 SCT025
TEMPO 1418/1503 30015G30KT 6000 SHRA BKN014
PROB30
TEMPO 1418/1503 2000 +SHRAGS BKN008 BKN025CB
BECMG 1500/1503 02015KT
No reported NOTAMs for that airfield.
1 SIGMET reported for the London FIR (EGTT) :
 
Severe turbulence
EGTT SIGMET 05 VALID 141900/142300 EGRR
EGTT LONDON FIR SEV TURB FCST SW OF LINE N5000 W00149 - N5152 W00623 SFC/FL060 STNR WKN=



MET'MAP, your aeronautical weather chart ! - Copyright ORBIFLY December 2007 - Disclaimer

ORBIFLY MET'MAP TEAM :

Programming & Development : Alexandra Zaïnal
Concept & Development : Baudouin d'Aumeries
Co-Development & Prog : Marc-Olivier Méhu
Technical & hardware support : Manuel Goepfert

Contact : metmap@orbifly.com




SOURCES & CREDITS :

   NOAA